Airfield :
LOGIN :

Register | Disclaimer

   EN    FR    IT 

 










Legend :    VFR   Marginal VFR   IFR   Intensive IFR   Very Intensive IFR
Visi :
Ceiling :
>= 8 km
>= 3000ft
5 to 8 km
1000 to 3000 ft
1500m to 5 km
500 to 1000 ft
800 to 1500m
200 to 500 ft
< 800m
< 200 ft
Symbols :   Thunderstorms  Fog  Heavy snow  Heavy precipitations  Wind > 20 kt
SIGMETs :     Misc.  Thunderstorms  Icing  Turbulence  Mountain Waves  Volcanic Ashes







- Airport Elevation : 423 ft
- IATA code : PIS
- Download approach charts


LFBI - Poitiers

CURRENT METAR :
  • 192230Z AUTO 25003KT CAVOK 16/14 Q1022 NOSIG

EXPIRED METARs :
  • 192200Z AUTO 26004KT CAVOK 16/13 Q1022 NOSIG
  • 192130Z AUTO 26004KT CAVOK 17/13 Q1022 NOSIG
  • 192100Z AUTO 26005KT CAVOK 17/13 Q1022 NOSIG
  • 192030Z AUTO 25005KT CAVOK 17/13 Q1022 NOSIG
  • 192000Z AUTO 26006KT CAVOK 19/13 Q1021 NOSIG

TAF TAF LFBI
Valid from the 19 at 18:00 until the 20 at 18:00 UTC


191700Z 1918/2018 25008KT CAVOK
BECMG 1918/1920 VRB02KT
TEMPO 2004/2010 3000 BR BKN002
PROB30
TEMPO 2004/2008 0800 FG VV///
BECMG 2012/2014 20008KT
No reported NOTAMs for that airfield.



MET'MAP, your aeronautical weather chart ! - Copyright ORBIFLY December 2007 - Disclaimer

ORBIFLY MET'MAP TEAM :

Programming & Development : Alexandra Zaïnal
Concept & Development : Baudouin d'Aumeries
Co-Development & Prog : Marc-Olivier Méhu
Technical & hardware support : Manuel Goepfert

Contact : metmap@orbifly.com




SOURCES & CREDITS :

   NOAA